North Crossroads, Mississippi
Current Conditions -  °F | °C
As of 11:15 AM on Sunday 23 Nov 2014 (Local Time) from KCRX Reporting Station
Light Rain Light Rain  
Wind Chill: 15°   Ceiling: 800
Heat Index: 15°   Visibility: 3mi
Dew Point: 14°   Wind: 10mph
Humidity: 94%   Direction: 130°SE
Pressure: 29.61"   Gusts: NA
Location:  34.8106°N, 88.1999°W
Report Text: KCRX 231715Z AUTO 13009KT 3SM -RA OVC008 15/14 A2961 RMK AO2
Loading
Personal Weather Stations






























Interactive Weather Map New forecast layout! Learn more

10-Day Weather Forecast

Advertisements
Track Severe Weather on mobile